createdAt,value
2022-08-11T00:01:10.998Z,64.26
2022-08-11T00:03:44.047Z,64.23
2022-08-11T00:06:14.247Z,64.70
2022-08-11T00:08:43.556Z,64.41
2022-08-11T00:11:13.220Z,64.39
2022-08-11T00:13:43.201Z,64.66
2022-08-11T00:16:22.767Z,64.64
2022-08-11T00:18:55.209Z,64.77
2022-08-11T00:22:03.101Z,64.93
2022-08-11T00:24:12.002Z,64.64
2022-08-11T00:26:39.092Z,64.90
2022-08-11T00:29:12.842Z,65.52
2022-08-11T00:31:52.523Z,65.63
2022-08-11T00:34:23.912Z,65.65
2022-08-11T00:36:53.936Z,65.58
2022-08-11T00:39:28.595Z,65.70
2022-08-11T00:42:11.184Z,66.12
2022-08-11T00:44:56.660Z,65.89
2022-08-11T00:47:35.852Z,66.14
2022-08-11T00:50:09.386Z,65.94
2022-08-11T00:53:03.431Z,66.04
2022-08-11T00:55:42.191Z,65.95
2022-08-11T00:58:29.580Z,66.54
2022-08-11T01:01:17.246Z,66.62
2022-08-11T01:04:06.314Z,66.84
2022-08-11T01:07:10.432Z,67.45
2022-08-11T01:09:52.952Z,67.07
2022-08-11T01:12:45.392Z,67.36
2022-08-11T01:15:59.703Z,67.73
2022-08-11T01:18:44.776Z,68.24
2022-08-11T01:21:56.092Z,68.62
2022-08-11T01:24:50.481Z,68.87
2022-08-11T01:27:32.369Z,68.69
2022-08-11T01:30:14.628Z,69.13
2022-08-11T01:32:41.639Z,68.91
2022-08-11T01:35:26.853Z,69.20
2022-08-11T01:38:31.829Z,69.45
2022-08-11T01:41:17.619Z,69.10
2022-08-11T01:44:32.606Z,69.42
2022-08-11T01:47:53.236Z,69.55
2022-08-11T01:50:32.807Z,69.16
2022-08-11T01:53:21.787Z,69.27
2022-08-11T01:56:05.762Z,69.24
2022-08-11T01:58:53.390Z,69.50
2022-08-11T02:01:32.379Z,69.22
2022-08-11T02:04:08.527Z,69.23
2022-08-11T02:07:09.863Z,69.71
2022-08-11T02:10:35.547Z,70.04
2022-08-11T02:13:53.029Z,70.07
2022-08-11T02:16:25.890Z,69.78
2022-08-11T02:19:19.558Z,69.54
2022-08-11T02:22:13.987Z,69.08
2022-08-11T02:25:07.407Z,68.94
2022-08-11T02:27:44.038Z,68.97
2022-08-11T02:30:17.575Z,68.99
2022-08-11T02:33:03.334Z,69.43
2022-08-11T02:35:47.452Z,69.46
2022-08-11T02:38:25.970Z,69.51
2022-08-11T02:41:49.642Z,69.86
2022-08-11T02:44:51.413Z,70.06
2022-08-11T02:48:09.868Z,69.78
2022-08-11T02:50:59.501Z,70.01
2022-08-11T02:53:37.127Z,70.91
2022-08-11T02:56:14.227Z,71.24
2022-08-11T02:59:22.297Z,71.95
2022-08-11T03:02:04.847Z,71.62
2022-08-11T03:04:55.700Z,72.40
2022-08-11T03:07:52.415Z,72.40
2022-08-11T03:10:28.925Z,72.43
2022-08-11T03:13:40.834Z,72.24
2022-08-11T03:16:45.902Z,72.33
2022-08-11T03:19:23.535Z,72.18
2022-08-11T03:22:06.271Z,72.25
2022-08-11T03:24:54.215Z,72.41
2022-08-11T03:27:33.261Z,71.85
2022-08-11T03:30:06.533Z,71.96
2022-08-11T03:33:06.351Z,71.94
2022-08-11T03:35:40.663Z,72.29
2022-08-11T03:38:15.062Z,72.45
2022-08-11T03:41:54.619Z,72.45
2022-08-11T03:44:23.621Z,71.96
2022-08-11T03:47:22.744Z,71.85
2022-08-11T03:50:20.227Z,71.70
2022-08-11T03:53:12.445Z,72.20
2022-08-11T03:55:45.379Z,72.00
2022-08-11T03:58:21.206Z,72.26
2022-08-11T04:01:15.997Z,72.53
2022-08-11T04:04:01.569Z,72.67
2022-08-11T04:06:51.194Z,72.90
2022-08-11T04:09:39.877Z,72.82
2022-08-11T04:12:36.106Z,72.96
2022-08-11T04:15:50.375Z,72.84
2022-08-11T04:18:35.470Z,73.36
2022-08-11T04:21:44.892Z,73.39
2022-08-11T04:24:50.562Z,73.48
2022-08-11T04:28:01.331Z,73.57
2022-08-11T04:30:35.352Z,73.36
2022-08-11T04:33:19.682Z,73.59
2022-08-11T04:35:55.760Z,73.63
2022-08-11T04:39:00.099Z,73.31
2022-08-11T04:42:16.734Z,73.53
2022-08-11T04:45:45.042Z,73.40
2022-08-11T04:49:08.634Z,73.30
2022-08-11T04:52:06.432Z,73.04
2022-08-11T04:55:20.738Z,73.24
2022-08-11T04:58:20.718Z,72.91
2022-08-11T05:01:43.620Z,72.28
2022-08-11T05:04:53.446Z,72.85
2022-08-11T05:07:32.772Z,72.36
2022-08-11T05:10:41.420Z,72.54
2022-08-11T05:13:29.690Z,72.29
2022-08-11T05:16:20.754Z,72.02
2022-08-11T05:19:12.007Z,71.92
2022-08-11T05:22:06.795Z,71.64
2022-08-11T05:25:01.051Z,71.81
2022-08-11T05:28:00.559Z,71.63
2022-08-11T05:30:47.792Z,71.59
2022-08-11T05:33:55.600Z,71.32
2022-08-11T05:36:30.253Z,70.97
2022-08-11T05:39:36.555Z,70.56
2022-08-11T05:42:30.353Z,70.29
2022-08-11T05:45:49.982Z,70.46
2022-08-11T05:48:40.740Z,69.70
2022-08-11T05:51:30.198Z,69.70
2022-08-11T05:54:28.179Z,70.17
2022-08-11T05:57:01.842Z,69.96
2022-08-11T05:59:29.750Z,69.70
2022-08-11T06:02:09.009Z,69.09
2022-08-11T06:04:37.321Z,68.95
2022-08-11T06:07:09.533Z,68.63
2022-08-11T06:09:50.941Z,68.17
2022-08-11T06:12:22.831Z,67.85
2022-08-11T06:14:58.309Z,67.90
2022-08-11T06:17:38.849Z,67.59
2022-08-11T06:20:12.538Z,66.68
2022-08-11T06:22:42.286Z,66.27
2022-08-11T06:25:10.877Z,66.08
2022-08-11T06:27:41.000Z,65.27
2022-08-11T06:30:14.713Z,63.81
2022-08-11T06:32:46.948Z,62.94
2022-08-11T06:35:35.085Z,62.03
2022-08-11T06:38:20.819Z,61.32
2022-08-11T06:41:16.993Z,60.82
2022-08-11T06:44:15.065Z,59.92
2022-08-11T06:46:45.113Z,58.77
2022-08-11T06:49:33.766Z,58.31
2022-08-11T06:52:04.731Z,57.47
2022-08-11T06:54:41.548Z,57.33
2022-08-11T06:57:32.704Z,56.19
2022-08-11T07:00:20.570Z,56.26
2022-08-11T07:03:00.981Z,55.99
2022-08-11T07:05:31.380Z,55.23
2022-08-11T07:08:34.587Z,54.08
2022-08-11T07:11:46.073Z,53.16
2022-08-11T07:14:38.597Z,53.39
2022-08-11T07:17:11.433Z,52.29
2022-08-11T07:20:01.670Z,52.59
2022-08-11T07:22:51.780Z,52.33
2022-08-11T07:25:37.711Z,51.67
2022-08-11T07:28:35.655Z,51.09
2022-08-11T07:31:14.236Z,50.50
2022-08-11T07:34:07.442Z,49.99
2022-08-11T07:36:43.103Z,49.65
2022-08-11T07:39:21.210Z,49.06
2022-08-11T07:44:35.107Z,47.14
2022-08-11T07:47:22.583Z,46.95
2022-08-11T07:50:12.289Z,46.19
2022-08-11T07:52:40.838Z,45.44
2022-08-11T07:55:17.160Z,45.24
2022-08-11T07:58:15.868Z,45.76
2022-08-11T08:01:21.276Z,44.13
2022-08-11T08:04:08.462Z,44.19
2022-08-11T08:06:56.302Z,44.14
2022-08-11T08:09:43.368Z,43.69
2022-08-11T08:12:30.214Z,43.15
2022-08-11T08:15:16.781Z,42.68
2022-08-11T08:18:09.568Z,41.83
2022-08-11T08:20:52.284Z,41.19
2022-08-11T08:23:34.948Z,41.23
2022-08-11T08:26:30.396Z,40.48
2022-08-11T08:29:20.018Z,41.24
2022-08-11T08:31:49.530Z,40.61
2022-08-11T08:34:17.383Z,40.14
2022-08-11T08:36:49.884Z,40.43
2022-08-11T08:39:22.619Z,40.71
2022-08-11T08:41:54.750Z,40.56
2022-08-11T08:44:41.592Z,40.06
2022-08-11T08:47:16.793Z,40.16
2022-08-11T08:50:09.143Z,40.13
2022-08-11T08:52:50.937Z,39.91
2022-08-11T08:55:20.352Z,39.64
2022-08-11T08:57:50.773Z,39.58
2022-08-11T09:00:22.998Z,39.12
2022-08-11T09:02:52.198Z,38.72
2022-08-11T09:05:20.097Z,38.07
2022-08-11T09:07:51.412Z,37.25
2022-08-11T09:10:20.687Z,36.29
2022-08-11T09:12:49.190Z,35.62
2022-08-11T09:15:19.965Z,35.83
2022-08-11T09:18:06.360Z,34.42
2022-08-11T09:20:35.165Z,34.79
2022-08-11T09:24:08.857Z,35.43
2022-08-11T09:26:33.584Z,36.29
2022-08-11T09:29:02.046Z,35.53
2022-08-11T09:31:39.853Z,35.37
2022-08-11T09:34:08.105Z,35.86
2022-08-11T09:36:55.218Z,36.59
2022-08-11T09:39:41.396Z,36.68
2022-08-11T09:42:16.624Z,37.11
2022-08-11T09:44:51.336Z,36.50
2022-08-11T09:47:28.896Z,37.18
2022-08-11T09:50:02.389Z,36.87
2022-08-11T09:52:32.600Z,37.21
2022-08-11T09:55:00.348Z,37.59
2022-08-11T09:57:46.078Z,37.85
2022-08-11T10:00:15.469Z,38.62
2022-08-11T10:02:49.080Z,37.72
2022-08-11T10:05:38.328Z,36.59
2022-08-11T10:08:07.647Z,35.33
2022-08-11T10:10:38.238Z,34.68
2022-08-11T10:14:30.808Z,34.22
2022-08-11T10:16:15.788Z,33.44
2022-08-11T10:18:53.030Z,32.40
2022-08-11T10:21:38.687Z,32.13
2022-08-11T10:24:26.558Z,31.76
2022-08-11T10:26:55.850Z,31.98
2022-08-11T10:29:51.086Z,33.04
2022-08-11T10:32:57.961Z,32.41
2022-08-11T10:35:32.436Z,33.69
2022-08-11T10:38:07.251Z,32.50
2022-08-11T10:40:39.179Z,32.27
2022-08-11T10:43:13.790Z,32.15
2022-08-11T10:46:04.651Z,31.62
2022-08-11T10:48:40.673Z,30.59
2022-08-11T10:51:15.920Z,30.94
2022-08-11T10:54:22.063Z,30.39
2022-08-11T10:57:08.011Z,30.00
2022-08-11T10:59:35.578Z,30.07
2022-08-11T11:02:03.552Z,30.04
2022-08-11T11:04:51.067Z,29.75
2022-08-11T11:07:22.803Z,29.75
2022-08-11T11:09:57.572Z,29.99
2022-08-11T11:12:50.394Z,29.70
2022-08-11T11:15:39.394Z,29.76
2022-08-11T11:18:14.770Z,28.58
2022-08-11T11:21:04.811Z,28.49
2022-08-11T11:23:34.759Z,28.35
2022-08-11T11:26:33.670Z,28.38
2022-08-11T11:29:39.625Z,27.80
2022-08-11T11:32:15.784Z,28.60
2022-08-11T11:35:09.346Z,28.18
2022-08-11T11:37:38.537Z,27.91
2022-08-11T11:40:17.774Z,28.49
2022-08-11T11:42:46.818Z,28.94
2022-08-11T11:45:23.480Z,29.81
2022-08-11T11:47:54.760Z,29.95
2022-08-11T11:50:32.717Z,30.73
2022-08-11T11:53:04.151Z,31.02
2022-08-11T11:55:32.102Z,31.34
2022-08-11T11:58:23.346Z,31.45
2022-08-11T12:01:11.064Z,31.32
2022-08-11T12:03:39.878Z,31.03
2022-08-11T12:06:09.914Z,31.31
2022-08-11T12:08:37.425Z,31.68
2022-08-11T12:11:27.739Z,31.98
2022-08-11T12:13:58.808Z,32.19
2022-08-11T12:16:33.538Z,32.38
2022-08-11T12:19:13.073Z,32.44
2022-08-11T12:22:04.629Z,32.77
2022-08-11T12:24:52.953Z,32.45
2022-08-11T12:27:25.183Z,31.94
2022-08-11T12:29:59.862Z,30.28
2022-08-11T12:32:32.786Z,29.92
2022-08-11T12:35:00.458Z,30.28
2022-08-11T12:37:32.193Z,30.06
2022-08-11T12:40:49.815Z,30.17
2022-08-11T12:43:37.986Z,30.33
2022-08-11T12:46:14.537Z,30.81
2022-08-11T12:49:06.803Z,30.91
2022-08-11T12:52:11.848Z,30.98
2022-08-11T12:54:47.663Z,31.39
2022-08-11T12:57:37.976Z,31.79
2022-08-11T13:00:28.119Z,32.04
2022-08-11T13:03:15.265Z,31.43
2022-08-11T13:05:45.063Z,31.59
2022-08-11T13:08:17.031Z,31.31
2022-08-11T13:11:05.189Z,31.30
2022-08-11T13:13:55.353Z,31.85
2022-08-11T13:16:23.308Z,32.53
2022-08-11T13:18:51.093Z,32.90
2022-08-11T13:21:21.269Z,32.87
2022-08-11T13:23:59.471Z,33.23
2022-08-11T13:26:47.622Z,32.66
2022-08-11T13:29:22.973Z,32.17
2022-08-11T13:31:51.789Z,31.60
2022-08-11T13:34:20.585Z,31.30
2022-08-11T13:36:52.479Z,31.82
2022-08-11T13:39:25.905Z,31.92
2022-08-11T13:41:59.700Z,31.76
2022-08-11T13:44:30.063Z,31.56
2022-08-11T13:47:01.851Z,31.48
2022-08-11T13:49:31.318Z,31.03
2022-08-11T13:51:59.521Z,31.19
2022-08-11T13:54:31.393Z,30.36
2022-08-11T13:57:03.470Z,30.25
2022-08-11T13:59:45.301Z,30.41
2022-08-11T14:02:29.493Z,30.65
2022-08-11T14:05:03.369Z,30.68
2022-08-11T14:07:39.370Z,31.06
2022-08-11T14:10:09.062Z,30.34
2022-08-11T14:12:55.939Z,30.43
2022-08-11T14:15:25.440Z,30.84
2022-08-11T14:17:58.231Z,30.95
2022-08-11T14:20:45.680Z,30.84
2022-08-11T14:23:15.253Z,30.64
2022-08-11T14:26:03.099Z,32.41
2022-08-11T14:28:40.073Z,33.39
2022-08-11T14:31:12.875Z,34.36
2022-08-11T14:34:00.883Z,33.29
2022-08-11T14:36:32.945Z,33.19
2022-08-11T14:39:03.692Z,34.79
2022-08-11T14:42:11.593Z,34.58
2022-08-11T14:44:57.571Z,32.71
2022-08-11T14:47:26.025Z,32.40
2022-08-11T14:50:09.741Z,32.20
2022-08-11T14:52:49.204Z,31.82
2022-08-11T14:55:36.498Z,31.45
2022-08-11T14:58:05.211Z,31.42
2022-08-11T15:00:34.758Z,31.54
2022-08-11T15:03:11.216Z,31.63
2022-08-11T15:05:56.717Z,31.80
2022-08-11T15:08:47.381Z,32.16
2022-08-11T15:11:35.529Z,32.12
2022-08-11T15:14:05.796Z,32.37
2022-08-11T15:16:51.965Z,31.63
2022-08-11T15:19:22.077Z,31.36
2022-08-11T15:22:08.568Z,31.70
2022-08-11T15:24:36.793Z,31.41
2022-08-11T15:27:28.381Z,31.41
2022-08-11T15:30:32.442Z,30.82
2022-08-11T15:33:20.796Z,30.62
2022-08-11T15:36:06.330Z,30.32
2022-08-11T15:38:37.066Z,30.67
2022-08-11T15:41:25.216Z,30.66
2022-08-11T15:44:13.313Z,29.99
2022-08-11T15:46:54.299Z,30.25
2022-08-11T15:50:11.883Z,30.07
2022-08-11T15:52:32.172Z,29.93
2022-08-11T15:55:02.597Z,30.34
2022-08-11T15:57:49.834Z,30.24
2022-08-11T16:00:36.461Z,30.46
2022-08-11T16:03:23.411Z,30.36
2022-08-11T16:05:53.147Z,30.49
2022-08-11T16:08:30.316Z,30.90
2022-08-11T16:11:03.879Z,30.53
2022-08-11T16:13:35.204Z,30.65
2022-08-11T16:16:18.930Z,31.07
2022-08-11T16:18:58.271Z,30.66
2022-08-11T16:21:36.143Z,30.68
2022-08-11T16:26:30.544Z,30.42
2022-08-11T16:27:10.484Z,30.63
2022-08-11T16:29:43.882Z,30.46
2022-08-11T16:32:19.328Z,30.57
2022-08-11T16:35:08.604Z,30.78
2022-08-11T16:37:56.416Z,30.61
2022-08-11T16:40:24.806Z,30.46
2022-08-11T16:43:12.467Z,31.07
2022-08-11T16:46:00.910Z,31.43
2022-08-11T16:48:36.060Z,31.35
2022-08-11T16:51:11.267Z,31.19
2022-08-11T16:53:48.918Z,31.49
2022-08-11T16:56:45.600Z,31.68
2022-08-11T16:59:24.253Z,32.13
2022-08-11T17:01:56.234Z,31.85
2022-08-11T17:04:55.720Z,32.11
2022-08-11T17:07:44.707Z,32.11
2022-08-11T17:10:52.356Z,32.03
2022-08-11T17:13:29.378Z,31.75
2022-08-11T17:16:09.201Z,32.00
2022-08-11T17:18:58.182Z,32.06
2022-08-11T17:21:27.930Z,32.54
2022-08-11T17:24:09.258Z,32.75
2022-08-11T17:26:58.886Z,32.92
2022-08-11T17:29:53.827Z,32.71
2022-08-11T17:32:57.113Z,33.09
2022-08-11T17:35:39.082Z,33.16
2022-08-11T17:38:14.795Z,33.22
2022-08-11T17:41:05.881Z,33.71
2022-08-11T17:43:52.920Z,33.68
2022-08-11T17:46:39.455Z,33.86
2022-08-11T17:49:08.801Z,33.67
2022-08-11T17:51:55.880Z,34.13
2022-08-11T17:54:43.552Z,34.36
2022-08-11T17:57:30.847Z,34.54
2022-08-11T17:59:59.948Z,34.49
2022-08-11T18:02:52.345Z,34.68
2022-08-11T18:05:21.923Z,35.08
2022-08-11T18:08:10.531Z,35.02
2022-08-11T18:10:58.680Z,35.11
2022-08-11T18:13:48.117Z,35.45
2022-08-11T18:16:34.121Z,35.13
2022-08-11T18:19:20.407Z,35.51
2022-08-11T18:22:15.495Z,35.67
2022-08-11T18:25:13.248Z,36.83
2022-08-11T18:28:03.051Z,36.20
2022-08-11T18:30:53.880Z,37.03
2022-08-11T18:34:06.427Z,37.49
2022-08-11T18:37:21.809Z,37.62
2022-08-11T18:40:16.951Z,37.91
2022-08-11T18:43:06.200Z,38.05
2022-08-11T18:46:06.503Z,38.74
2022-08-11T18:48:57.755Z,38.58
2022-08-11T18:51:45.599Z,39.05
2022-08-11T18:54:35.320Z,38.92
2022-08-11T18:57:25.784Z,38.67
2022-08-11T19:00:13.425Z,38.47
2022-08-11T19:03:01.116Z,38.45
2022-08-11T19:06:37.189Z,38.36
2022-08-11T19:09:01.516Z,39.11
2022-08-11T19:11:49.845Z,39.68
2022-08-11T19:14:38.450Z,40.18
2022-08-11T19:17:43.971Z,40.35
2022-08-11T19:20:35.234Z,40.95
2022-08-11T19:23:24.303Z,40.04
2022-08-11T19:26:12.086Z,39.63
2022-08-11T19:29:00.713Z,39.70
2022-08-11T19:31:48.074Z,39.80
2022-08-11T19:34:41.186Z,39.43
2022-08-11T19:37:28.953Z,40.34
2022-08-11T19:40:20.082Z,41.17
2022-08-11T19:43:18.646Z,41.99
2022-08-11T19:46:13.913Z,43.30
2022-08-11T19:49:02.194Z,42.86
2022-08-11T19:51:54.615Z,40.86
2022-08-11T19:54:45.278Z,40.14
2022-08-11T19:57:37.127Z,39.89
2022-08-11T20:00:30.510Z,39.74
2022-08-11T20:03:22.627Z,40.55
2022-08-11T20:06:11.435Z,40.02
2022-08-11T20:09:02.684Z,39.61
2022-08-11T20:11:52.461Z,39.72
2022-08-11T20:14:40.356Z,39.49
2022-08-11T20:17:28.870Z,39.66
2022-08-11T20:20:19.035Z,39.70
2022-08-11T20:23:06.720Z,39.85
2022-08-11T20:26:03.359Z,39.59
2022-08-11T20:28:56.351Z,40.07
2022-08-11T20:31:43.184Z,39.86
2022-08-11T20:34:29.799Z,40.20
2022-08-11T20:37:20.398Z,41.28
2022-08-11T20:40:08.646Z,42.40
2022-08-11T20:42:56.546Z,43.52
2022-08-11T20:45:51.981Z,43.85
2022-08-11T20:48:42.578Z,45.15
2022-08-11T20:51:38.600Z,48.25
2022-08-11T20:54:43.066Z,47.17
2022-08-11T20:57:54.595Z,45.58
2022-08-11T21:00:40.452Z,45.13
2022-08-11T21:03:36.359Z,44.49
2022-08-11T21:06:33.334Z,44.22
2022-08-11T21:09:23.944Z,44.21
2022-08-11T21:12:29.787Z,43.65
2022-08-11T21:15:47.578Z,43.83
2022-08-11T21:18:28.577Z,44.06
2022-08-11T21:21:18.522Z,44.11
2022-08-11T21:24:07.751Z,44.14
2022-08-11T21:27:03.399Z,45.04
2022-08-11T21:29:53.106Z,46.33
2022-08-11T21:32:40.403Z,46.41
2022-08-11T21:35:30.461Z,46.54
2022-08-11T21:38:17.913Z,47.51
2022-08-11T21:41:05.623Z,48.16
2022-08-11T21:43:52.427Z,48.12
2022-08-11T21:46:41.495Z,48.39
2022-08-11T21:49:29.151Z,48.26
2022-08-11T21:52:15.327Z,47.96
2022-08-11T21:55:02.110Z,47.57
2022-08-11T21:57:50.305Z,47.91
2022-08-11T22:00:36.485Z,47.81
2022-08-11T22:03:23.945Z,48.07
2022-08-11T22:06:12.613Z,48.78
2022-08-11T22:08:58.632Z,49.74
2022-08-11T22:11:44.875Z,50.86
2022-08-11T22:14:30.421Z,50.96
2022-08-11T22:17:16.282Z,51.58
2022-08-11T22:20:02.744Z,52.40
2022-08-11T22:22:53.129Z,52.90
2022-08-11T22:25:53.728Z,52.71
2022-08-11T22:28:41.761Z,52.43
2022-08-11T22:31:29.388Z,51.47
2022-08-11T22:34:15.383Z,51.58
2022-08-11T22:37:03.358Z,52.30
2022-08-11T22:40:01.907Z,51.80
2022-08-11T22:42:50.358Z,52.40
2022-08-11T22:45:36.652Z,52.41
2022-08-11T22:48:25.081Z,52.70
2022-08-11T22:51:12.923Z,52.96
2022-08-11T22:54:00.080Z,52.96
2022-08-11T22:56:48.548Z,53.42
2022-08-11T22:59:36.576Z,53.77
2022-08-11T23:02:24.977Z,53.77
2022-08-11T23:05:11.241Z,54.50
2022-08-11T23:07:58.339Z,54.66
2022-08-11T23:10:45.370Z,55.35
2022-08-11T23:13:32.253Z,55.35
2022-08-11T23:16:19.208Z,55.92
2022-08-11T23:19:06.764Z,55.72
2022-08-11T23:21:53.989Z,55.94
2022-08-11T23:24:41.053Z,56.14
2022-08-11T23:27:28.120Z,56.11
2022-08-11T23:30:17.173Z,56.54
2022-08-11T23:33:07.099Z,56.55
2022-08-11T23:35:57.920Z,56.33
2022-08-11T23:38:47.292Z,56.40
2022-08-11T23:41:33.703Z,55.91
2022-08-11T23:44:24.397Z,55.84
2022-08-11T23:47:13.416Z,55.79
2022-08-11T23:50:00.206Z,55.97
2022-08-11T23:52:47.397Z,55.80
2022-08-11T23:55:33.359Z,55.89
2022-08-11T23:58:19.336Z,55.81
